Latest Weather Observations for Casino

IDN60801

Issued at 10:05 pm EST Sunday 21 September 2014 (issued every 30 minutes, with the page automatically refreshed every 10 minutes)

About weather observations | Map of weather stations | Latest weather observations for NSW | Other Formats
Station Details ID: 058208 Name: CASINO AIRPORT AWS Lat: -28.88 Lon: 153.06 Height: 20.9 m
Data from the previous 72 hours. | See also: Recent months at Casino
Date/Time
EST
Temp
°C
App
Temp
°C
Dew
Point
Rel
Hum
%
Delta-T
°C
Wind Press
QNH
hPa
Press
MSL
hPa
Rain
since 9 am
mm
Dir
 
Spd
km/h
Gust
km/h
Spd
kts
Gust
kts
21/10:00pm 14.4 12.4 10.0 75 2.3 S 11 15 6 8 1028.6 1028.5 0.0
21/09:30pm 15.2 13.3 10.4 73 2.5 SSW 11 13 6 7 1028.8 1028.7 0.0
21/09:00pm 15.8 14.4 10.8 72 2.6 SSW 9 15 5 8 1028.8 1028.7 0.0
21/08:30pm 15.8 14.3 10.6 71 2.8 SSW 9 13 5 7 1028.6 1028.5 0.0
21/08:00pm 16.0 14.6 11.0 72 2.7 SW 9 11 5 6 1028.5 1028.4 0.0
21/07:30pm 16.2 15.2 10.9 71 2.8 SSW 7 11 4 6 1028.2 1028.1 0.0
21/07:00pm 16.3 15.3 11.0 71 2.8 SSW 7 9 4 5 1027.7 1027.6 0.0
21/06:30pm 16.4 15.7 11.3 72 2.7 S 6 9 3 5 1027.2 1027.1 0.0
21/06:00pm 16.8 14.7 11.1 69 3.0 SE 13 15 7 8 1027.1 1027.0 0.0
21/05:30pm 16.9 15.2 11.2 69 3.1 SE 11 17 6 9 1026.8 1026.7 0.0
21/05:00pm 17.3 14.3 10.7 65 3.5 SSE 17 24 9 13 1026.3 1026.2 0.0
21/04:30pm 18.3 14.6 9.6 57 4.6 SSE 19 35 10 19 1026.2 1026.1 0.0
21/04:00pm 19.0 13.7 11.3 61 4.2 SE 30 43 16 23 1025.8 1025.7 0.0
21/03:30pm 19.8 13.8 10.0 53 5.3 SE 32 43 17 23 1025.6 1025.5 0.0
21/03:00pm 21.9 17.2 10.7 49 6.1 SE 26 37 14 20 1025.3 1025.2 0.0
21/02:30pm 20.4 14.9 9.3 49 5.9 ESE 28 37 15 20 1025.0 1024.9 0.0
21/02:00pm 20.8 16.4 8.8 46 6.3 SE 22 33 12 18 1025.0 1024.9 0.0
21/01:30pm 21.7 19.2 12.3 55 5.3 SSE 17 26 9 14 1025.3 1025.2 0.0
21/01:00pm 20.8 17.2 10.0 50 5.8 SSE 19 28 10 15 1025.6 1025.5 0.0
21/12:30pm 22.4 18.5 9.6 44 6.9 ESE 20 26 11 14 1026.1 1026.0 0.0
21/12:00pm 20.0 16.2 9.0 49 5.8 SSE 19 26 10 14 1026.3 1026.2 0.0
21/11:30am 20.3 17.5 10.1 52 5.5 SSE 15 22 8 12 1026.3 1026.2 0.0
21/11:00am 22.8 21.1 11.2 48 6.4 SE 11 19 6 10 1026.9 1026.8 0.0
21/10:30am 20.7 17.7 10.8 53 5.4 SSE 17 24 9 13 1027.4 1027.3 0.0
21/10:00am 19.7 16.4 9.6 52 5.3 S 17 24 9 13 1027.9 1027.8 0.0
21/09:30am 19.8 17.2 10.8 56 4.9 SSE 15 20 8 11 1028.1 1028.0 0.0
21/09:00am 19.6 16.7 10.9 57 4.7 S 17 28 9 15 1028.2 1028.1 0.0
21/08:30am 17.7 15.6 9.6 59 4.3 SSW 11 17 6 9 1028.0 1027.9 0.0
21/08:00am 15.0 13.7 9.8 71 2.7 SSW 7 11 4 6 1027.9 1027.8 0.0
21/07:30am 14.4 13.0 9.6 73 2.5 NW 7 11 4 6 1027.7 1027.6 0.0
21/07:00am 12.3 11.1 9.5 83 1.4 WNW 6 7 3 4 1027.4 1027.3 0.0
21/06:30am 10.7 10.1 9.1 90 0.8 W 2 7 1 4 1027.0 1026.9 0.0
21/06:00am 9.5 7.7 7.9 90 0.8 NW 7 9 4 5 1026.7 1026.6 0.0
21/05:30am 9.7 8.1 8.0 89 0.8 WNW 6 7 3 4 1026.4 1026.3 0.0
21/05:00am 9.4 7.7 7.7 89 0.8 NW 6 7 3 4 1026.0 1025.9 0.0
21/04:30am 9.0 7.6 7.3 89 0.8 W 4 7 2 4 1025.6 1025.5 0.0
21/04:00am 8.5 7.8 6.8 89 0.8 CALM 0 0 0 0 1025.4 1025.3 0.0
21/03:30am 9.0 8.4 7.6 91 0.7 CALM 0 0 0 0 1025.1 1025.0 0.0
21/03:00am 8.6 7.5 7.1 90 0.7 WNW 2 6 1 3 1025.0 1024.9 0.0
21/02:30am 8.5 7.1 7.1 91 0.7 WSW 4 7 2 4 1025.3 1025.2 0.0
21/02:00am 7.4 5.2 6.0 91 0.6 N 7 11 4 6 1025.7 1025.6 0.0
21/01:30am 6.9 4.5 5.2 89 0.7 SSW 7 11 4 6 1025.6 1025.5 0.0
21/01:00am 7.2 4.9 5.7 90 0.7 S 7 9 4 5 1025.7 1025.6 0.0
21/12:30am 8.1 7.3 6.7 91 0.6 CALM 0 0 0 0 1026.0 1025.9 0.0
21/12:00am 8.5 6.7 7.1 91 0.7 NNW 6 7 3 4 1026.2 1026.1 0.0
 
Date/Time
EST
Temp
°C
App
Temp
°C
Dew
Point
Rel
Hum
%
Delta-T
°C
Wind Press
QNH
hPa
Press
MSL
hPa
Rain
since 9 am
mm
Dir
 
Spd
km/h
Gust
km/h
Spd
kts
Gust
kts
20/11:30pm 7.7 6.7 5.7 87 0.9 CALM 0 0 0 0 1026.1 1026.0 0.0
20/11:00pm 9.1 8.5 7.2 88 0.9 CALM 0 0 0 0 1026.1 1026.0 0.0
20/10:30pm 9.4 8.8 7.3 87 1.0 CALM 0 0 0 0 1026.0 1025.9 0.0
20/10:00pm 9.7 8.1 7.8 88 0.9 NW 6 6 3 3 1026.0 1025.9 0.0
20/09:30pm 9.5 7.8 7.4 87 1.0 N 6 7 3 4 1025.8 1025.7 0.0
20/09:00pm 9.4 8.6 6.7 83 1.3 CALM 0 4 0 2 1025.5 1025.4 0.0
20/08:30pm 9.9 8.4 6.6 80 1.5 SW 4 7 2 4 1025.0 1024.9 0.0
20/08:00pm 11.4 9.8 8.1 80 1.6 SW 6 7 3 4 1024.8 1024.7 0.0
20/07:30pm 12.7 11.2 8.6 76 2.0 W 6 7 3 4 1024.3 1024.2 0.0
20/07:00pm 13.8 12.3 8.4 70 2.7 SSE 6 6 3 3 1023.8 1023.7 0.0
20/06:30pm 14.6 12.3 7.6 63 3.5 ESE 9 11 5 6 1023.3 1023.2 0.0
20/06:00pm 16.1 13.1 7.8 58 4.1 ESE 13 19 7 10 1022.7 1022.6 0.0
20/05:30pm 17.7 13.7 8.3 54 4.8 SE 19 26 10 14 1022.2 1022.1 0.0
20/05:00pm 19.0 14.8 8.1 49 5.6 SE 20 28 11 15 1021.7 1021.6 0.0
20/04:30pm 19.8 14.4 6.5 42 6.7 ESE 24 32 13 17 1020.9 1020.8 0.0
20/04:00pm 20.9 15.8 7.5 42 6.9 E 24 35 13 19 1020.4 1020.3 0.0
20/03:30pm 21.1 15.3 6.2 38 7.5 ESE 26 32 14 17 1020.4 1020.3 0.0
20/03:00pm 21.6 16.0 7.1 39 7.4 ESE 26 33 14 18 1020.0 1019.9 0.0
20/02:30pm 22.2 16.3 6.0 35 8.2 ESE 26 33 14 18 1019.8 1019.7 0.0
20/02:00pm 22.8 17.6 7.4 37 8.0 ESE 24 33 13 18 1019.8 1019.7 0.0
20/01:30pm 23.1 18.4 5.1 31 9.0 E 19 30 10 16 1020.0 1019.9 0.0
20/01:00pm 20.9 15.8 6.1 38 7.4 E 22 33 12 18 1020.4 1020.3 0.0
20/12:30pm 22.5 19.6 8.2 40 7.5 ESE 13 20 7 11 1020.6 1020.5 0.0
20/12:00pm 20.9 18.0 6.4 39 7.3 SSE 11 19 6 10 1021.1 1021.0 0.0
20/11:30am 22.0 20.5 9.2 44 6.8 ENE 7 13 4 7 1021.6 1021.5 0.0
20/11:00am 20.9 19.8 9.8 49 5.9 SE 6 19 3 10 1022.2 1022.1 0.0
20/10:30am 20.7 19.7 10.2 51 5.7 S 6 13 3 7 1022.4 1022.3 0.0
20/10:00am 19.0 16.9 9.8 55 4.9 SW 11 17 6 9 1022.8 1022.7 0.0
20/09:30am 19.7 18.3 10.9 57 4.8 ESE 9 15 5 8 1023.1 1023.0 0.0
20/09:00am 18.5 17.4 10.8 61 4.1 ENE 7 13 4 7 1023.2 1023.1 0.0
20/08:30am 18.2 17.3 11.3 64 3.8 ENE 7 13 4 7 1023.1 1023.0 0.0
20/08:00am 16.6 15.5 11.9 74 2.6 SW 9 13 5 7 1023.0 1022.9 0.0
20/07:30am 15.8 15.0 11.8 77 2.2 SSW 7 11 4 6 1022.8 1022.7 0.0
20/07:00am 14.6 14.0 11.6 82 1.6 SW 6 9 3 5 1022.6 1022.5 0.0
20/06:30am 14.1 14.7 12.0 87 1.1 CALM 0 2 0 1 1022.1 1022.0 0.0
20/06:00am 13.5 13.8 11.0 85 1.3 CALM 0 0 0 0 1021.6 1021.5 0.0
20/05:30am 13.6 13.5 10.9 84 1.4 W 2 7 1 4 1021.3 1021.2 0.0
20/05:00am 13.4 12.4 10.9 85 1.3 SW 7 11 4 6 1020.9 1020.8 0.0
20/04:30am 13.3 12.4 10.8 85 1.3 SW 6 7 3 4 1020.4 1020.3 0.0
20/04:00am 13.1 11.7 10.8 86 1.2 SSW 9 13 5 7 1020.2 1020.1 0.0
20/03:30am 12.5 10.7 10.7 89 0.9 SW 11 15 6 8 1020.1 1020.0 0.0
20/03:00am 11.6 10.5 10.0 90 0.8 WSW 6 7 3 4 1019.9 1019.8 0.0
20/02:30am 11.4 10.3 10.0 91 0.7 SW 6 7 3 4 1020.1 1020.0 0.0
20/02:00am 10.7 10.5 9.0 89 0.8 CALM 0 0 0 0 1020.2 1020.1 0.0
20/01:30am 11.0 9.7 9.1 88 0.9 S 6 9 3 5 1020.0 1019.9 0.0
20/01:00am 11.4 9.7 9.8 90 0.8 SW 9 11 5 6 1019.8 1019.7 0.0
20/12:30am 11.4 10.1 9.3 87 1.1 WSW 6 7 3 4 1019.7 1019.6 0.0
20/12:00am 11.7 10.2 9.3 85 1.2 W 7 9 4 5 1019.7 1019.6 0.0
 
Date/Time
EST
Temp
°C
App
Temp
°C
Dew
Point
Rel
Hum
%
Delta-T
°C
Wind Press
QNH
hPa
Press
MSL
hPa
Rain
since 9 am
mm
Dir
 
Spd
km/h
Gust
km/h
Spd
kts
Gust
kts
19/11:30pm 12.2 10.8 9.6 84 1.3 W 7 11 4 6 1019.6 1019.5 0.0
19/11:00pm 13.3 11.8 10.7 84 1.4 W 9 11 5 6 1019.3 1019.2 0.0
19/10:30pm 12.2 11.1 9.8 85 1.2 WNW 6 9 3 5 1019.5 1019.4 0.0
19/10:00pm 12.9 12.8 9.4 79 1.8 CALM 0 4 0 2 1019.5 1019.4 0.0
19/09:30pm 13.9 14.1 10.7 81 1.7 CALM 0 0 0 0 1019.8 1019.7 0.0
19/09:00pm 14.2 13.2 10.4 78 2.0 SE 6 7 3 4 1019.6 1019.5 0.0
19/08:30pm 14.9 13.8 10.5 75 2.3 S 7 7 4 4 1019.5 1019.4 0.0
19/08:00pm 14.3 12.6 9.9 75 2.3 SE 9 11 5 6 1019.3 1019.2 0.0
19/07:30pm 14.1 11.6 9.7 75 2.3 ESE 13 15 7 8 1018.9 1018.8 0.0
19/07:00pm 14.6 12.4 9.2 70 2.8 E 11 15 6 8 1018.5 1018.4 0.0
19/06:30pm 15.4 12.5 9.5 68 3.1 ESE 15 17 8 9 1017.9 1017.8 0.0
19/06:00pm 17.0 14.2 9.9 63 3.7 E 15 19 8 10 1017.6 1017.5 0.0
19/05:30pm 18.9 15.5 10.5 58 4.5 E 19 24 10 13 1017.2 1017.1 0.0
19/05:00pm 20.5 16.5 10.6 53 5.4 ENE 22 30 12 16 1016.8 1016.7 0.0
19/04:30pm 21.4 17.1 10.9 51 5.8 E 24 33 13 18 1016.6 1016.5 0.0
19/04:00pm 22.2 17.4 10.4 47 6.5 E 26 33 14 18 1016.3 1016.2 0.0
19/03:30pm 22.9 18.6 10.7 46 6.7 ENE 24 30 13 16 1016.1 1016.0 0.0
19/03:00pm 23.3 18.3 11.0 46 6.8 E 28 35 15 19 1016.1 1016.0 0.0
19/02:30pm 25.2 21.1 6.4 30 9.7 E 17 20 9 11 1016.3 1016.2 0.0
19/02:00pm 23.2 20.2 6.0 33 8.7 E 11 17 6 9 1016.8 1016.7 0.0
19/01:30pm 23.0 20.3 5.4 32 8.8 S 9 13 5 7 1017.4 1017.3 0.0
19/01:00pm 23.1 19.8 4.6 30 9.1 E 11 15 6 8 1018.1 1018.0 0.0
19/12:30pm 23.3 19.9 5.7 32 8.9 NE 13 19 7 10 1018.8 1018.7 0.0
19/12:00pm 22.7 20.1 6.0 34 8.4 E 9 13 5 7 1019.2 1019.1 0.0
19/11:30am 22.1 19.5 6.3 36 8.0 N 9 19 5 10 1019.8 1019.7 0.0
19/11:00am 21.8 19.6 8.0 41 7.2 NNE 9 15 5 8 1020.4 1020.3 0.0
19/10:30am 20.4 18.9 9.0 48 6.0 SE 7 11 4 6 1020.8 1020.7 0.0
19/10:00am 19.5 18.3 7.9 47 5.9 NNE 4 11 2 6 1021.2 1021.1 0.0
19/09:30am 18.5 16.9 8.2 51 5.3 NW 6 9 3 5 1021.8 1021.7 0.0
19/09:00am 17.3 15.6 8.2 55 4.6 W 7 9 4 5 1022.2 1022.1 0.0
19/08:30am 16.1 14.0 8.1 59 4.0 WNW 9 13 5 7 1022.4 1022.3 0.0
19/08:00am 14.6 12.0 7.9 64 3.3 WNW 11 17 6 9 1022.4 1022.3 0.0
19/07:30am 12.9 10.4 8.2 73 2.3 NW 11 13 6 7 1022.0 1021.9 0.0
19/07:00am 10.7 8.0 7.2 79 1.7 NW 11 15 6 8 1021.9 1021.8 0.0
19/06:30am 9.0 6.5 6.6 85 1.1 WNW 9 11 5 6 1021.6 1021.5 0.0
19/06:00am 7.6 4.5 5.7 88 0.8 WNW 11 15 6 8 1021.3 1021.2 0.0
19/05:30am 6.2 3.8 4.5 89 0.7 W 6 9 3 5 1020.8 1020.7 0.0
19/05:00am 6.7 4.4 4.7 87 0.9 NW 6 7 3 4 1020.6 1020.5 0.0
19/04:30am 7.7 4.7 5.8 88 0.9 WNW 11 13 6 7 1020.7 1020.6 0.0
19/04:00am 8.0 5.4 6.1 88 0.9 W 9 13 5 7 1020.3 1020.2 0.0
19/03:30am 7.8 5.6 6.3 90 0.7 W 7 11 4 6 1020.0 1019.9 0.0
19/03:00am 7.6 5.5 5.9 89 0.8 WNW 6 7 3 4 1019.8 1019.7 0.0
19/02:30am 7.5 5.2 5.8 89 0.8 W 7 7 4 4 1020.0 1019.9 0.0
19/02:00am 7.3 5.1 5.4 88 0.8 W 6 7 3 4 1020.1 1020.0 0.0
19/01:30am 7.6 5.5 5.6 87 0.9 W 6 7 3 4 1020.5 1020.4 0.0
19/01:00am 8.3 6.1 6.3 87 0.9 W 7 11 4 6 1020.6 1020.5 0.0
19/12:30am 9.0 7.9 6.8 86 1.0 NW 2 7 1 4 1020.7 1020.6 0.0
19/12:00am 8.8 6.7 5.9 82 1.3 NNW 6 7 3 4 1020.7 1020.6 0.0
 
Date/Time
EST
Temp
°C
App
Temp
°C
Dew
Point
Rel
Hum
%
Delta-T
°C
Wind Press
QNH
hPa
Press
MSL
hPa
Rain
since 9 am
mm
Dir
 
Spd
km/h
Gust
km/h
Spd
kts
Gust
kts
18/11:30pm 9.6 8.8 6.7 82 1.4 CALM 0 0 0 0 1020.9 1020.8 0.0
18/11:00pm 9.9 9.3 7.2 83 1.3 CALM 0 0 0 0 1020.8 1020.7 0.0
18/10:30pm 10.4 9.8 7.3 81 1.5 CALM 0 0 0 0 1020.9 1020.8 0.0

Other Formats:

Comma delimited format used in spreadsheet applications
http://www.bom.gov.au/fwo/IDN60801/IDN60801.94573.axf

JavaScript Object Notation format (JSON) in row-major order
http://www.bom.gov.au/fwo/IDN60801/IDN60801.94573.json